sensor_id;sensor_type;location;lat;lon;timestamp;pressure;altitude;pressure_sealevel;temperature;humidity
35011;BME280;21205;37.378;127.098;2023-03-20T00:01:27;100664.44;;;18.85;28.08
35011;BME280;21205;37.378;127.098;2023-03-20T00:03:57;100668.84;;;18.86;27.93
35011;BME280;21205;37.378;127.098;2023-03-20T00:06:27;100665.25;;;18.64;27.75
35011;BME280;21205;37.378;127.098;2023-03-20T00:08:57;100665.34;;;18.47;28.65
35011;BME280;21205;37.378;127.098;2023-03-20T00:11:36;100661.81;;;18.38;28.48
35011;BME280;21205;37.378;127.098;2023-03-20T00:14:12;100663.84;;;18.29;29.34
35011;BME280;21205;37.378;127.098;2023-03-20T00:16:43;100661.16;;;18.12;29.35
35011;BME280;21205;37.378;127.098;2023-03-20T00:19:19;100670.19;;;18.09;28.99
35011;BME280;21205;37.378;127.098;2023-03-20T00:21:53;100672.47;;;18.07;29.33
35011;BME280;21205;37.378;127.098;2023-03-20T00:24:23;100665.19;;;17.93;29.63
35011;BME280;21205;37.378;127.098;2023-03-20T00:26:53;100665.53;;;17.83;29.43
35011;BME280;21205;37.378;127.098;2023-03-20T00:29:28;100664.25;;;17.81;29.63
35011;BME280;21205;37.378;127.098;2023-03-20T00:31:59;100655.56;;;17.82;29.71
35011;BME280;21205;37.378;127.098;2023-03-20T00:34:29;100662.81;;;17.75;30.06
35011;BME280;21205;37.378;127.098;2023-03-20T00:36:59;100663.81;;;17.61;30.09
35011;BME280;21205;37.378;127.098;2023-03-20T00:39:28;100663.69;;;17.58;30.02
35011;BME280;21205;37.378;127.098;2023-03-20T00:42:03;100662.69;;;17.54;30.21
35011;BME280;21205;37.378;127.098;2023-03-20T00:44:39;100657.94;;;17.54;29.97
35011;BME280;21205;37.378;127.098;2023-03-20T00:47:22;100652.72;;;17.53;30.33
35011;BME280;21205;37.378;127.098;2023-03-20T00:49:53;100661.03;;;17.53;29.89
35011;BME280;21205;37.378;127.098;2023-03-20T00:52:24;100652.69;;;17.61;30.25
35011;BME280;21205;37.378;127.098;2023-03-20T00:54:53;100657.78;;;17.59;29.91
35011;BME280;21205;37.378;127.098;2023-03-20T00:57:29;100656.19;;;17.41;30.45
35011;BME280;21205;37.378;127.098;2023-03-20T01:00:29;100650.63;;;17.41;30.10
35011;BME280;21205;37.378;127.098;2023-03-20T01:02:56;100653.22;;;17.46;30.31
35011;BME280;21205;37.378;127.098;2023-03-20T01:05:26;100660.09;;;17.49;30.01
35011;BME280;21205;37.378;127.098;2023-03-20T01:07:56;100648.78;;;17.54;30.08
35011;BME280;21205;37.378;127.098;2023-03-20T01:10:29;100659.06;;;17.62;29.50
35011;BME280;21205;37.378;127.098;2023-03-20T01:13:01;100659.75;;;17.59;30.21
35011;BME280;21205;37.378;127.098;2023-03-20T01:15:32;100644.41;;;17.44;30.12
35011;BME280;21205;37.378;127.098;2023-03-20T01:18:02;100641.63;;;17.44;29.83
35011;BME280;21205;37.378;127.098;2023-03-20T01:20:32;100650.31;;;17.42;30.06
35011;BME280;21205;37.378;127.098;2023-03-20T01:23:01;100644.06;;;17.46;30.47
35011;BME280;21205;37.378;127.098;2023-03-20T01:25:31;100639.00;;;17.48;30.46
35011;BME280;21205;37.378;127.098;2023-03-20T01:28:01;100632.91;;;17.54;30.11
35011;BME280;21205;37.378;127.098;2023-03-20T01:30:32;100627.34;;;17.54;30.22
35011;BME280;21205;37.378;127.098;2023-03-20T01:33:11;100628.00;;;17.60;30.18
35011;BME280;21205;37.378;127.098;2023-03-20T01:35:42;100626.72;;;17.49;30.11
35011;BME280;21205;37.378;127.098;2023-03-20T01:38:14;100621.47;;;17.56;29.96
35011;BME280;21205;37.378;127.098;2023-03-20T01:41:05;100615.75;;;17.52;30.08
35011;BME280;21205;37.378;127.098;2023-03-20T01:43:36;100614.59;;;17.62;30.01
35011;BME280;21205;37.378;127.098;2023-03-20T01:46:16;100609.97;;;17.75;29.74
35011;BME280;21205;37.378;127.098;2023-03-20T01:51:25;100601.28;;;17.76;29.81
35011;BME280;21205;37.378;127.098;2023-03-20T01:54:05;100602.25;;;17.80;29.99
35011;BME280;21205;37.378;127.098;2023-03-20T01:56:46;100603.44;;;17.70;29.30
35011;BME280;21205;37.378;127.098;2023-03-20T01:59:28;100607.72;;;17.68;29.86
35011;BME280;21205;37.378;127.098;2023-03-20T02:01:58;100595.19;;;17.83;29.91
35011;BME280;21205;37.378;127.098;2023-03-20T02:04:32;100593.41;;;18.08;29.45
35011;BME280;21205;37.378;127.098;2023-03-20T02:07:04;100593.22;;;18.13;28.88
35011;BME280;21205;37.378;127.098;2023-03-20T02:09:35;100592.88;;;18.14;28.73
35011;BME280;21205;37.378;127.098;2023-03-20T02:12:05;100589.63;;;17.91;29.14
35011;BME280;21205;37.378;127.098;2023-03-20T02:14:35;100587.31;;;17.93;29.04
35011;BME280;21205;37.378;127.098;2023-03-20T02:17:07;100585.28;;;18.02;29.41
35011;BME280;21205;37.378;127.098;2023-03-20T02:19:54;100574.41;;;17.89;29.01
35011;BME280;21205;37.378;127.098;2023-03-20T02:28:57;100558.19;;;18.12;28.87
35011;BME280;21205;37.378;127.098;2023-03-20T02:32:15;100550.59;;;18.00;28.66
35011;BME280;21205;37.378;127.098;2023-03-20T02:43:19;100539.13;;;18.01;29.19
35011;BME280;21205;37.378;127.098;2023-03-20T03:01:05;100522.50;;;18.14;28.52
35011;BME280;21205;37.378;127.098;2023-03-20T03:06:31;100499.56;;;18.17;29.03
35011;BME280;21205;37.378;127.098;2023-03-20T03:09:10;100474.94;;;18.27;29.16
35011;BME280;21205;37.378;127.098;2023-03-20T03:11:55;100476.00;;;18.14;28.07
35011;BME280;21205;37.378;127.098;2023-03-20T03:14:49;100472.75;;;18.12;28.27
35011;BME280;21205;37.378;127.098;2023-03-20T03:17:23;100462.44;;;18.13;28.47
35011;BME280;21205;37.378;127.098;2023-03-20T03:19:55;100461.16;;;18.10;28.83
35011;BME280;21205;37.378;127.098;2023-03-20T03:22:27;100456.75;;;18.09;28.81
35011;BME280;21205;37.378;127.098;2023-03-20T03:24:56;100454.31;;;18.08;28.74
35011;BME280;21205;37.378;127.098;2023-03-20T03:27:46;100444.13;;;18.12;28.47
35011;BME280;21205;37.378;127.098;2023-03-20T03:30:23;100450.28;;;18.17;29.23
35011;BME280;21205;37.378;127.098;2023-03-20T03:33:18;100449.28;;;18.22;28.65
35011;BME280;21205;37.378;127.098;2023-03-20T03:35:52;100453.06;;;18.17;28.66
35011;BME280;21205;37.378;127.098;2023-03-20T03:41:13;100458.91;;;18.24;28.72
35011;BME280;21205;37.378;127.098;2023-03-20T03:43:58;100446.63;;;18.25;28.43
35011;BME280;21205;37.378;127.098;2023-03-20T03:46:49;100430.88;;;18.29;28.80
35011;BME280;21205;37.378;127.098;2023-03-20T03:49:42;100429.88;;;18.46;28.23
35011;BME280;21205;37.378;127.098;2023-03-20T03:52:20;100415.47;;;18.44;28.43
35011;BME280;21205;37.378;127.098;2023-03-20T03:54:51;100414.53;;;18.40;27.92
35011;BME280;21205;37.378;127.098;2023-03-20T03:57:45;100401.56;;;18.44;27.61
35011;BME280;21205;37.378;127.098;2023-03-20T04:00:19;100413.38;;;18.41;27.89
35011;BME280;21205;37.378;127.098;2023-03-20T04:02:53;100412.03;;;18.59;28.24
35011;BME280;21205;37.378;127.098;2023-03-20T04:05:27;100409.97;;;18.56;27.85
35011;BME280;21205;37.378;127.098;2023-03-20T04:08:01;100398.00;;;18.56;28.24
35011;BME280;21205;37.378;127.098;2023-03-20T04:10:31;100387.94;;;18.63;28.01
35011;BME280;21205;37.378;127.098;2023-03-20T04:13:00;100368.81;;;18.62;27.51
35011;BME280;21205;37.378;127.098;2023-03-20T04:15:30;100372.94;;;18.56;27.53
35011;BME280;21205;37.378;127.098;2023-03-20T04:18:00;100371.59;;;18.62;27.53
35011;BME280;21205;37.378;127.098;2023-03-20T04:20:29;100364.03;;;18.62;27.86
35011;BME280;21205;37.378;127.098;2023-03-20T04:23:00;100360.34;;;18.71;27.77
35011;BME280;21205;37.378;127.098;2023-03-20T04:25:29;100356.63;;;18.79;27.65
35011;BME280;21205;37.378;127.098;2023-03-20T04:27:59;100354.06;;;18.74;27.11
35011;BME280;21205;37.378;127.098;2023-03-20T04:30:29;100351.41;;;18.77;28.00
35011;BME280;21205;37.378;127.098;2023-03-20T04:32:59;100357.31;;;18.76;27.52
35011;BME280;21205;37.378;127.098;2023-03-20T04:35:28;100358.47;;;18.62;27.02
35011;BME280;21205;37.378;127.098;2023-03-20T04:37:58;100355.88;;;18.57;27.26
35011;BME280;21205;37.378;127.098;2023-03-20T04:40:27;100348.72;;;18.69;27.60
35011;BME280;21205;37.378;127.098;2023-03-20T04:42:59;100353.13;;;18.70;27.95
35011;BME280;21205;37.378;127.098;2023-03-20T04:45:28;100340.84;;;18.71;27.46
35011;BME280;21205;37.378;127.098;2023-03-20T04:47:58;100362.53;;;18.65;27.93
35011;BME280;21205;37.378;127.098;2023-03-20T04:50:28;100361.72;;;18.64;27.02
35011;BME280;21205;37.378;127.098;2023-03-20T04:52:58;100348.16;;;18.63;27.00
35011;BME280;21205;37.378;127.098;2023-03-20T04:55:28;100344.31;;;18.68;27.14
35011;BME280;21205;37.378;127.098;2023-03-20T04:57:57;100344.44;;;18.71;27.29
35011;BME280;21205;37.378;127.098;2023-03-20T05:00:27;100338.75;;;18.80;27.36
35011;BME280;21205;37.378;127.098;2023-03-20T05:02:57;100338.38;;;18.81;27.18
35011;BME280;21205;37.378;127.098;2023-03-20T05:05:26;100346.53;;;18.74;27.18
35011;BME280;21205;37.378;127.098;2023-03-20T05:07:57;100349.88;;;18.68;27.22
35011;BME280;21205;37.378;127.098;2023-03-20T05:10:26;100346.63;;;18.65;27.01
35011;BME280;21205;37.378;127.098;2023-03-20T05:12:56;100352.31;;;18.69;26.43
35011;BME280;21205;37.378;127.098;2023-03-20T05:15:26;100348.72;;;18.69;26.93
35011;BME280;21205;37.378;127.098;2023-03-20T05:17:55;100350.13;;;18.62;26.78
35011;BME280;21205;37.378;127.098;2023-03-20T05:20:25;100349.06;;;18.67;27.08
35011;BME280;21205;37.378;127.098;2023-03-20T05:22:55;100344.19;;;18.64;26.49
35011;BME280;21205;37.378;127.098;2023-03-20T05:25:25;100343.38;;;18.63;26.81
35011;BME280;21205;37.378;127.098;2023-03-20T05:27:54;100343.84;;;18.65;26.13
35011;BME280;21205;37.378;127.098;2023-03-20T05:30:24;100339.91;;;18.67;26.54
35011;BME280;21205;37.378;127.098;2023-03-20T05:32:54;100330.63;;;18.62;26.15
35011;BME280;21205;37.378;127.098;2023-03-20T05:35:24;100322.13;;;18.59;26.19
35011;BME280;21205;37.378;127.098;2023-03-20T05:37:54;100312.25;;;18.61;26.61
35011;BME280;21205;37.378;127.098;2023-03-20T05:40:24;100305.66;;;18.54;26.40
35011;BME280;21205;37.378;127.098;2023-03-20T05:42:53;100303.44;;;18.59;26.19
35011;BME280;21205;37.378;127.098;2023-03-20T05:45:23;100301.97;;;18.62;26.00
35011;BME280;21205;37.378;127.098;2023-03-20T05:47:53;100292.31;;;18.59;25.67
35011;BME280;21205;37.378;127.098;2023-03-20T05:50:22;100290.84;;;18.62;26.13
35011;BME280;21205;37.378;127.098;2023-03-20T05:52:52;100291.41;;;18.68;25.96
35011;BME280;21205;37.378;127.098;2023-03-20T05:55:22;100294.09;;;18.64;25.58
35011;BME280;21205;37.378;127.098;2023-03-20T05:57:51;100293.28;;;18.63;25.90
35011;BME280;21205;37.378;127.098;2023-03-20T06:00:21;100285.25;;;18.62;25.34
35011;BME280;21205;37.378;127.098;2023-03-20T06:02:51;100284.41;;;18.61;25.46
35011;BME280;21205;37.378;127.098;2023-03-20T06:05:21;100282.13;;;18.63;25.53
35011;BME280;21205;37.378;127.098;2023-03-20T06:07:50;100267.25;;;18.59;25.77
